sensor_id;sensor_type;location;lat;lon;timestamp;temperature;humidity
7564;DHT22;3823;53.586;10.040;2022-09-09T00:07:04;15.10;99.90
7564;DHT22;3823;53.586;10.040;2022-09-09T00:12:48;15.20;99.90
7564;DHT22;3823;53.586;10.040;2022-09-09T00:15:21;15.20;99.90
7564;DHT22;3823;53.586;10.040;2022-09-09T00:20:35;15.20;99.90
7564;DHT22;3823;53.586;10.040;2022-09-09T00:23:27;15.20;99.90
7564;DHT22;3823;53.586;10.040;2022-09-09T00:26:02;15.20;99.90
7564;DHT22;3823;53.586;10.040;2022-09-09T00:28:29;15.20;99.90
7564;DHT22;3823;53.586;10.040;2022-09-09T00:31:01;15.20;99.90
7564;DHT22;3823;53.586;10.040;2022-09-09T00:33:34;15.20;99.90
7564;DHT22;3823;53.586;10.040;2022-09-09T00:36:01;15.20;99.90
7564;DHT22;3823;53.586;10.040;2022-09-09T00:38:35;15.20;99.90
7564;DHT22;3823;53.586;10.040;2022-09-09T00:50:12;15.10;99.90
7564;DHT22;3823;53.586;10.040;2022-09-09T00:57:57;15.10;99.90
7564;DHT22;3823;53.586;10.040;2022-09-09T01:00:29;15.10;99.90
7564;DHT22;3823;53.586;10.040;2022-09-09T01:03:18;15.00;99.90
7564;DHT22;3823;53.586;10.040;2022-09-09T01:10:58;15.00;99.90
7564;DHT22;3823;53.586;10.040;2022-09-09T01:13:28;14.90;99.90
7564;DHT22;3823;53.586;10.040;2022-09-09T01:16:00;14.80;99.90
7564;DHT22;3823;53.586;10.040;2022-09-09T01:18:49;14.80;99.90
7564;DHT22;3823;53.586;10.040;2022-09-09T01:24:29;14.80;99.90
7564;DHT22;3823;53.586;10.040;2022-09-09T01:27:01;14.80;99.90
7564;DHT22;3823;53.586;10.040;2022-09-09T01:29:27;14.80;99.90
7564;DHT22;3823;53.586;10.040;2022-09-09T01:31:58;14.80;99.90
7564;DHT22;3823;53.586;10.040;2022-09-09T01:34:29;14.90;99.90
7564;DHT22;3823;53.586;10.040;2022-09-09T01:37:10;14.90;99.90
7564;DHT22;3823;53.586;10.040;2022-09-09T01:39:38;14.90;99.90
7564;DHT22;3823;53.586;10.040;2022-09-09T01:42:06;14.80;99.90
7564;DHT22;3823;53.586;10.040;2022-09-09T01:44:34;14.90;99.90
7564;DHT22;3823;53.586;10.040;2022-09-09T01:47:01;14.80;99.90
7564;DHT22;3823;53.586;10.040;2022-09-09T01:49:26;14.70;99.90
7564;DHT22;3823;53.586;10.040;2022-09-09T01:51:54;14.70;99.90
7564;DHT22;3823;53.586;10.040;2022-09-09T01:54:22;14.70;99.90
7564;DHT22;3823;53.586;10.040;2022-09-09T02:02:36;14.70;99.90
7564;DHT22;3823;53.586;10.040;2022-09-09T02:05:06;14.70;99.90
7564;DHT22;3823;53.586;10.040;2022-09-09T02:07:42;14.70;99.90
7564;DHT22;3823;53.586;10.040;2022-09-09T02:10:17;14.60;99.90
7564;DHT22;3823;53.586;10.040;2022-09-09T02:12:48;14.50;99.90
7564;DHT22;3823;53.586;10.040;2022-09-09T02:15:40;14.50;99.90
7564;DHT22;3823;53.586;10.040;2022-09-09T02:18:10;14.50;99.90
7564;DHT22;3823;53.586;10.040;2022-09-09T02:20:39;14.50;99.90
7564;DHT22;3823;53.586;10.040;2022-09-09T02:23:07;14.60;99.90
7564;DHT22;3823;53.586;10.040;2022-09-09T02:25:34;14.60;99.90
7564;DHT22;3823;53.586;10.040;2022-09-09T02:28:01;14.70;99.90
7564;DHT22;3823;53.586;10.040;2022-09-09T02:30:29;14.60;99.90
7564;DHT22;3823;53.586;10.040;2022-09-09T02:32:58;14.60;99.90
7564;DHT22;3823;53.586;10.040;2022-09-09T02:35:24;14.60;99.90
7564;DHT22;3823;53.586;10.040;2022-09-09T02:37:53;14.50;99.90
7564;DHT22;3823;53.586;10.040;2022-09-09T02:40:21;14.60;99.90
7564;DHT22;3823;53.586;10.040;2022-09-09T02:42:48;14.60;99.90
7564;DHT22;3823;53.586;10.040;2022-09-09T02:45:19;14.60;99.90
7564;DHT22;3823;53.586;10.040;2022-09-09T02:48:08;14.50;99.90
7564;DHT22;3823;53.586;10.040;2022-09-09T02:51:08;14.60;99.90
7564;DHT22;3823;53.586;10.040;2022-09-09T02:53:52;14.50;99.90
7564;DHT22;3823;53.586;10.040;2022-09-09T02:56:24;14.60;99.90
7564;DHT22;3823;53.586;10.040;2022-09-09T02:58:51;14.60;99.90
7564;DHT22;3823;53.586;10.040;2022-09-09T03:01:17;14.50;99.90
7564;DHT22;3823;53.586;10.040;2022-09-09T03:03:42;14.50;99.90
7564;DHT22;3823;53.586;10.040;2022-09-09T03:06:09;14.50;99.90
7564;DHT22;3823;53.586;10.040;2022-09-09T03:08:37;14.50;99.90
7564;DHT22;3823;53.586;10.040;2022-09-09T03:11:03;14.50;99.90
7564;DHT22;3823;53.586;10.040;2022-09-09T03:13:28;14.50;99.90
7564;DHT22;3823;53.586;10.040;2022-09-09T03:15:54;14.40;99.90
7564;DHT22;3823;53.586;10.040;2022-09-09T03:18:20;14.40;99.90
7564;DHT22;3823;53.586;10.040;2022-09-09T03:20:46;14.40;99.90
7564;DHT22;3823;53.586;10.040;2022-09-09T03:23:13;14.40;99.90
7564;DHT22;3823;53.586;10.040;2022-09-09T03:25:46;14.40;99.90
7564;DHT22;3823;53.586;10.040;2022-09-09T03:28:13;14.40;99.90
7564;DHT22;3823;53.586;10.040;2022-09-09T03:30:39;14.40;99.90
7564;DHT22;3823;53.586;10.040;2022-09-09T03:33:04;14.30;99.90
7564;DHT22;3823;53.586;10.040;2022-09-09T03:35:29;14.30;99.90
7564;DHT22;3823;53.586;10.040;2022-09-09T03:37:55;14.20;99.90
7564;DHT22;3823;53.586;10.040;2022-09-09T03:40:21;14.30;99.90
7564;DHT22;3823;53.586;10.040;2022-09-09T03:42:46;14.30;99.90
7564;DHT22;3823;53.586;10.040;2022-09-09T03:45:13;14.40;99.90
7564;DHT22;3823;53.586;10.040;2022-09-09T03:47:38;14.40;99.90
7564;DHT22;3823;53.586;10.040;2022-09-09T03:50:06;14.30;99.90
7564;DHT22;3823;53.586;10.040;2022-09-09T03:52:35;14.20;99.90
7564;DHT22;3823;53.586;10.040;2022-09-09T03:55:01;14.30;99.90
7564;DHT22;3823;53.586;10.040;2022-09-09T03:57:26;14.20;99.90
7564;DHT22;3823;53.586;10.040;2022-09-09T03:59:52;14.20;99.90
7564;DHT22;3823;53.586;10.040;2022-09-09T04:02:17;14.10;99.90
7564;DHT22;3823;53.586;10.040;2022-09-09T04:04:43;14.10;99.90
7564;DHT22;3823;53.586;10.040;2022-09-09T04:07:08;14.10;99.90
7564;DHT22;3823;53.586;10.040;2022-09-09T04:09:34;14.10;99.90
7564;DHT22;3823;53.586;10.040;2022-09-09T04:12:00;14.10;99.90
7564;DHT22;3823;53.586;10.040;2022-09-09T04:14:25;14.20;99.90
7564;DHT22;3823;53.586;10.040;2022-09-09T04:16:54;14.20;99.90
7564;DHT22;3823;53.586;10.040;2022-09-09T04:19:19;14.20;99.90
7564;DHT22;3823;53.586;10.040;2022-09-09T04:21:45;14.20;99.90
7564;DHT22;3823;53.586;10.040;2022-09-09T04:24:10;14.10;99.90
7564;DHT22;3823;53.586;10.040;2022-09-09T04:26:36;14.20;99.90
7564;DHT22;3823;53.586;10.040;2022-09-09T04:29:03;14.20;99.90
7564;DHT22;3823;53.586;10.040;2022-09-09T04:31:29;14.20;99.90
7564;DHT22;3823;53.586;10.040;2022-09-09T04:33:55;14.20;99.90
7564;DHT22;3823;53.586;10.040;2022-09-09T04:36:20;14.20;99.90
7564;DHT22;3823;53.586;10.040;2022-09-09T04:38:46;14.20;99.90
7564;DHT22;3823;53.586;10.040;2022-09-09T04:41:14;14.10;99.90
7564;DHT22;3823;53.586;10.040;2022-09-09T04:43:40;14.20;99.90
7564;DHT22;3823;53.586;10.040;2022-09-09T04:46:05;14.10;99.90
7564;DHT22;3823;53.586;10.040;2022-09-09T04:48:32;14.10;99.90
7564;DHT22;3823;53.586;10.040;2022-09-09T04:50:59;14.00;99.90
7564;DHT22;3823;53.586;10.040;2022-09-09T04:53:25;14.00;99.90
7564;DHT22;3823;53.586;10.040;2022-09-09T04:56:15;14.10;99.90
7564;DHT22;3823;53.586;10.040;2022-09-09T04:58:41;14.10;99.90
7564;DHT22;3823;53.586;10.040;2022-09-09T05:01:15;14.10;99.90
7564;DHT22;3823;53.586;10.040;2022-09-09T05:03:41;14.10;99.90
7564;DHT22;3823;53.586;10.040;2022-09-09T05:06:12;14.10;99.90
7564;DHT22;3823;53.586;10.040;2022-09-09T05:08:39;14.00;99.90
7564;DHT22;3823;53.586;10.040;2022-09-09T05:11:17;14.00;99.90
7564;DHT22;3823;53.586;10.040;2022-09-09T05:13:44;14.10;99.90
7564;DHT22;3823;53.586;10.040;2022-09-09T05:16:10;14.10;99.90
7564;DHT22;3823;53.586;10.040;2022-09-09T05:18:37;14.20;99.90
7564;DHT22;3823;53.586;10.040;2022-09-09T05:21:03;14.20;99.90
7564;DHT22;3823;53.586;10.040;2022-09-09T05:23:28;14.10;99.90
7564;DHT22;3823;53.586;10.040;2022-09-09T05:25:58;14.10;99.90
7564;DHT22;3823;53.586;10.040;2022-09-09T05:28:27;14.10;99.90
7564;DHT22;3823;53.586;10.040;2022-09-09T05:30:57;14.20;99.90
7564;DHT22;3823;53.586;10.040;2022-09-09T05:33:24;14.20;99.90
7564;DHT22;3823;53.586;10.040;2022-09-09T05:36:23;14.20;99.90
7564;DHT22;3823;53.586;10.040;2022-09-09T05:38:49;14.20;99.90
7564;DHT22;3823;53.586;10.040;2022-09-09T05:41:15;14.30;99.90
7564;DHT22;3823;53.586;10.040;2022-09-09T05:43:43;14.20;99.90
7564;DHT22;3823;53.586;10.040;2022-09-09T05:46:21;14.30;99.90
7564;DHT22;3823;53.586;10.040;2022-09-09T05:48:48;14.40;99.90
7564;DHT22;3823;53.586;10.040;2022-09-09T05:51:20;14.60;99.90
7564;DHT22;3823;53.586;10.040;2022-09-09T05:53:47;14.70;99.90
7564;DHT22;3823;53.586;10.040;2022-09-09T05:56:16;14.70;99.90
7564;DHT22;3823;53.586;10.040;2022-09-09T05:58:42;14.70;99.90
7564;DHT22;3823;53.586;10.040;2022-09-09T06:01:17;14.70;99.90
7564;DHT22;3823;53.586;10.040;2022-09-09T06:03:44;14.80;99.90
7564;DHT22;3823;53.586;10.040;2022-09-09T06:06:13;14.90;99.90
7564;DHT22;3823;53.586;10.040;2022-09-09T06:08:41;14.90;99.90
7564;DHT22;3823;53.586;10.040;2022-09-09T06:11:14;14.80;99.90
7564;DHT22;3823;53.586;10.040;2022-09-09T06:13:40;14.70;99.90
7564;DHT22;3823;53.586;10.040;2022-09-09T06:16:11;14.80;99.90
7564;DHT22;3823;53.586;10.040;2022-09-09T06:18:40;14.80;99.90
7564;DHT22;3823;53.586;10.040;2022-09-09T06:21:20;14.80;99.90
7564;DHT22;3823;53.586;10.040;2022-09-09T06:23:46;14.80;99.90
7564;DHT22;3823;53.586;10.040;2022-09-09T06:26:25;14.90;99.90
7564;DHT22;3823;53.586;10.040;2022-09-09T06:28:52;14.90;99.90
7564;DHT22;3823;53.586;10.040;2022-09-09T06:31:23;14.90;99.90
7564;DHT22;3823;53.586;10.040;2022-09-09T06:33:51;14.90;99.90
7564;DHT22;3823;53.586;10.040;2022-09-09T06:36:25;14.80;99.90
7564;DHT22;3823;53.586;10.040;2022-09-09T06:38:51;14.80;99.90
7564;DHT22;3823;53.586;10.040;2022-09-09T06:41:19;14.80;99.90
7564;DHT22;3823;53.586;10.040;2022-09-09T06:43:45;14.80;99.90
7564;DHT22;3823;53.586;10.040;2022-09-09T06:46:21;14.80;99.90
7564;DHT22;3823;53.586;10.040;2022-09-09T06:48:53;14.90;99.90
7564;DHT22;3823;53.586;10.040;2022-09-09T06:51:22;14.90;99.90
7564;DHT22;3823;53.586;10.040;2022-09-09T06:53:50;14.90;99.90
7564;DHT22;3823;53.586;10.040;2022-09-09T06:58:42;15.00;99.90
7564;DHT22;3823;53.586;10.040;2022-09-09T07:01:10;15.00;99.90
7564;DHT22;3823;53.586;10.040;2022-09-09T07:03:38;15.00;99.90
7564;DHT22;3823;53.586;10.040;2022-09-09T07:06:05;15.00;99.90
7564;DHT22;3823;53.586;10.040;2022-09-09T07:08:31;15.10;99.90
7564;DHT22;3823;53.586;10.040;2022-09-09T07:11:04;15.30;99.90
7564;DHT22;3823;53.586;10.040;2022-09-09T07:13:30;15.50;99.90
7564;DHT22;3823;53.586;10.040;2022-09-09T07:16:10;15.70;99.90
7564;DHT22;3823;53.586;10.040;2022-09-09T07:18:36;16.00;99.90
7564;DHT22;3823;53.586;10.040;2022-09-09T07:21:03;16.10;99.90
7564;DHT22;3823;53.586;10.040;2022-09-09T07:23:29;16.10;99.90
7564;DHT22;3823;53.586;10.040;2022-09-09T07:25:56;16.10;99.90
7564;DHT22;3823;53.586;10.040;2022-09-09T07:28:22;16.00;99.90
7564;DHT22;3823;53.586;10.040;2022-09-09T07:30:59;16.00;99.90
7564;DHT22;3823;53.586;10.040;2022-09-09T07:33:26;16.00;99.90
7564;DHT22;3823;53.586;10.040;2022-09-09T07:35:52;16.00;99.90
7564;DHT22;3823;53.586;10.040;2022-09-09T07:38:19;16.00;99.90
7564;DHT22;3823;53.586;10.040;2022-09-09T07:40:45;16.00;99.90
7564;DHT22;3823;53.586;10.040;2022-09-09T07:43:11;16.20;99.90
7564;DHT22;3823;53.586;10.040;2022-09-09T07:45:37;16.60;99.90
7564;DHT22;3823;53.586;10.040;2022-09-09T07:48:04;17.10;99.90
7564;DHT22;3823;53.586;10.040;2022-09-09T07:50:30;17.10;99.90
7564;DHT22;3823;53.586;10.040;2022-09-09T07:52:55;17.50;99.90
7564;DHT22;3823;53.586;10.040;2022-09-09T07:55:22;18.00;99.90
7564;DHT22;3823;53.586;10.040;2022-09-09T07:57:51;18.10;99.90
7564;DHT22;3823;53.586;10.040;2022-09-09T08:00:16;18.00;99.90
7564;DHT22;3823;53.586;10.040;2022-09-09T08:02:42;17.80;99.90
7564;DHT22;3823;53.586;10.040;2022-09-09T08:05:07;17.70;99.90
7564;DHT22;3823;53.586;10.040;2022-09-09T08:07:34;17.60;99.90
7564;DHT22;3823;53.586;10.040;2022-09-09T08:09:59;17.50;99.90
7564;DHT22;3823;53.586;10.040;2022-09-09T08:12:25;17.40;99.90
7564;DHT22;3823;53.586;10.040;2022-09-09T08:14:50;17.20;99.90
7564;DHT22;3823;53.586;10.040;2022-09-09T08:17:17;17.10;99.90
7564;DHT22;3823;53.586;10.040;2022-09-09T08:19:42;17.00;99.90
7564;DHT22;3823;53.586;10.040;2022-09-09T08:22:08;17.10;99.90
7564;DHT22;3823;53.586;10.040;2022-09-09T08:24:34;17.20;99.90
7564;DHT22;3823;53.586;10.040;2022-09-09T08:26:59;17.20;99.90
7564;DHT22;3823;53.586;10.040;2022-09-09T08:29:25;17.20;99.90
7564;DHT22;3823;53.586;10.040;2022-09-09T08:31:53;17.50;99.90
7564;DHT22;3823;53.586;10.040;2022-09-09T08:34:20;18.00;99.90
7564;DHT22;3823;53.586;10.040;2022-09-09T08:36:47;18.50;99.90
7564;DHT22;3823;53.586;10.040;2022-09-09T08:39:15;18.50;96.00
7564;DHT22;3823;53.586;10.040;2022-09-09T08:57:58;17.80;99.90
7564;DHT22;3823;53.586;10.040;2022-09-09T09:00:55;17.70;99.90
7564;DHT22;3823;53.586;10.040;2022-09-09T09:09:06;18.20;92.10
7564;DHT22;3823;53.586;10.040;2022-09-09T09:11:39;18.40;99.90
7564;DHT22;3823;53.586;10.040;2022-09-09T09:14:31;18.80;52.30
7564;DHT22;3823;53.586;10.040;2022-09-09T09:17:01;18.90;23.30
7564;DHT22;3823;53.586;10.040;2022-09-09T09:19:29;18.90;30.60
7564;DHT22;3823;53.586;10.040;2022-09-09T09:22:10;19.20;13.80
7564;DHT22;3823;53.586;10.040;2022-09-09T09:24:55;19.60;1.00
7564;DHT22;3823;53.586;10.040;2022-09-09T09:27:32;19.40;1.00
7564;DHT22;3823;53.586;10.040;2022-09-09T09:29:59;19.30;1.00
7564;DHT22;3823;53.586;10.040;2022-09-09T09:32:29;19.60;1.00
7564;DHT22;3823;53.586;10.040;2022-09-09T09:34:57;19.80;1.00
7564;DHT22;3823;53.586;10.040;2022-09-09T09:37:29;19.90;1.00
7564;DHT22;3823;53.586;10.040;2022-09-09T09:39:55;19.90;1.00
7564;DHT22;3823;53.586;10.040;2022-09-09T09:42:21;19.80;1.00
7564;DHT22;3823;53.586;10.040;2022-09-09T09:44:47;19.60;1.00
7564;DHT22;3823;53.586;10.040;2022-09-09T09:47:21;19.30;1.00
7564;DHT22;3823;53.586;10.040;2022-09-09T09:49:57;19.30;1.00
7564;DHT22;3823;53.586;10.040;2022-09-09T09:52:26;19.20;1.00
7564;DHT22;3823;53.586;10.040;2022-09-09T09:54:54;19.20;1.00
7564;DHT22;3823;53.586;10.040;2022-09-09T09:57:26;19.10;1.00
7564;DHT22;3823;53.586;10.040;2022-09-09T10:00:03;19.10;1.00
7564;DHT22;3823;53.586;10.040;2022-09-09T10:02:37;19.20;1.00
7564;DHT22;3823;53.586;10.040;2022-09-09T10:07:31;19.70;1.00
7564;DHT22;3823;53.586;10.040;2022-09-09T10:09:57;19.80;1.00
7564;DHT22;3823;53.586;10.040;2022-09-09T10:18:21;20.20;1.00
7564;DHT22;3823;53.586;10.040;2022-09-09T10:21:20;20.70;1.00
7564;DHT22;3823;53.586;10.040;2022-09-09T10:26:59;21.70;1.00
7564;DHT22;3823;53.586;10.040;2022-09-09T10:33:18;21.50;1.00
7564;DHT22;3823;53.586;10.040;2022-09-09T10:35:35;21.50;1.00
7564;DHT22;3823;53.586;10.040;2022-09-09T10:38:15;21.60;1.00
7564;DHT22;3823;53.586;10.040;2022-09-09T10:46:22;21.00;1.00
7564;DHT22;3823;53.586;10.040;2022-09-09T10:54:36;21.10;1.00
7564;DHT22;3823;53.586;10.040;2022-09-09T10:57:36;21.30;1.00
7564;DHT22;3823;53.586;10.040;2022-09-09T11:00:10;21.60;1.00
7564;DHT22;3823;53.586;10.040;2022-09-09T11:02:40;21.30;1.00
7564;DHT22;3823;53.586;10.040;2022-09-09T11:05:16;21.20;1.00
7564;DHT22;3823;53.586;10.040;2022-09-09T11:08:09;21.00;1.00
7564;DHT22;3823;53.586;10.040;2022-09-09T11:11:00;21.00;1.00
7564;DHT22;3823;53.586;10.040;2022-09-09T11:16:33;20.90;1.00
7564;DHT22;3823;53.586;10.040;2022-09-09T11:19:08;20.90;1.00
7564;DHT22;3823;53.586;10.040;2022-09-09T11:21:46;20.90;1.00
7564;DHT22;3823;53.586;10.040;2022-09-09T11:24:37;21.00;1.00
7564;DHT22;3823;53.586;10.040;2022-09-09T11:27:26;21.00;1.00
7564;DHT22;3823;53.586;10.040;2022-09-09T11:35:22;20.90;1.00
7564;DHT22;3823;53.586;10.040;2022-09-09T11:40:30;21.10;1.00
7564;DHT22;3823;53.586;10.040;2022-09-09T11:43:19;21.10;1.00
7564;DHT22;3823;53.586;10.040;2022-09-09T11:45:53;20.90;1.00
7564;DHT22;3823;53.586;10.040;2022-09-09T11:48:31;20.80;1.00
7564;DHT22;3823;53.586;10.040;2022-09-09T11:51:09;20.60;1.00
7564;DHT22;3823;53.586;10.040;2022-09-09T11:53:51;20.60;1.00
7564;DHT22;3823;53.586;10.040;2022-09-09T11:56:42;20.50;1.00
7564;DHT22;3823;53.586;10.040;2022-09-09T11:59:25;20.60;1.00
7564;DHT22;3823;53.586;10.040;2022-09-09T12:01:59;20.80;1.00
7564;DHT22;3823;53.586;10.040;2022-09-09T12:04:30;20.80;1.00
7564;DHT22;3823;53.586;10.040;2022-09-09T12:09:51;20.90;1.00
7564;DHT22;3823;53.586;10.040;2022-09-09T12:12:25;20.70;1.00
7564;DHT22;3823;53.586;10.040;2022-09-09T12:17:27;20.70;1.00
7564;DHT22;3823;53.586;10.040;2022-09-09T12:22:35;20.50;1.00
7564;DHT22;3823;53.586;10.040;2022-09-09T12:30:32;20.60;1.00
7564;DHT22;3823;53.586;10.040;2022-09-09T12:33:11;20.70;1.00
7564;DHT22;3823;53.586;10.040;2022-09-09T12:35:38;20.70;1.00
7564;DHT22;3823;53.586;10.040;2022-09-09T12:38:05;20.60;1.00
7564;DHT22;3823;53.586;10.040;2022-09-09T12:40:34;20.60;1.00
7564;DHT22;3823;53.586;10.040;2022-09-09T12:43:20;20.60;1.00
7564;DHT22;3823;53.586;10.040;2022-09-09T12:45:47;20.50;1.00
7564;DHT22;3823;53.586;10.040;2022-09-09T12:48:18;20.30;1.00
7564;DHT22;3823;53.586;10.040;2022-09-09T12:50:51;20.20;1.00
7564;DHT22;3823;53.586;10.040;2022-09-09T12:53:24;20.00;1.00
7564;DHT22;3823;53.586;10.040;2022-09-09T12:56:21;20.10;1.00
7564;DHT22;3823;53.586;10.040;2022-09-09T12:58:49;20.10;1.00
7564;DHT22;3823;53.586;10.040;2022-09-09T13:01:26;20.00;1.00
7564;DHT22;3823;53.586;10.040;2022-09-09T13:03:52;19.90;1.00
7564;DHT22;3823;53.586;10.040;2022-09-09T13:06:29;19.70;1.00
7564;DHT22;3823;53.586;10.040;2022-09-09T13:08:56;19.60;1.00
7564;DHT22;3823;53.586;10.040;2022-09-09T13:11:39;19.50;1.00
7564;DHT22;3823;53.586;10.040;2022-09-09T13:14:21;19.50;1.00
7564;DHT22;3823;53.586;10.040;2022-09-09T13:16:56;19.40;1.00
7564;DHT22;3823;53.586;10.040;2022-09-09T13:19:22;19.30;1.00
7564;DHT22;3823;53.586;10.040;2022-09-09T13:21:47;19.20;1.00
7564;DHT22;3823;53.586;10.040;2022-09-09T13:24:31;19.20;1.00
7564;DHT22;3823;53.586;10.040;2022-09-09T13:27:03;19.20;1.00
7564;DHT22;3823;53.586;10.040;2022-09-09T13:29:31;19.20;1.00
7564;DHT22;3823;53.586;10.040;2022-09-09T13:32:15;19.10;1.00
7564;DHT22;3823;53.586;10.040;2022-09-09T13:34:51;19.10;1.00
7564;DHT22;3823;53.586;10.040;2022-09-09T13:37:36;19.10;1.00
7564;DHT22;3823;53.586;10.040;2022-09-09T13:40:03;19.10;2.50
7564;DHT22;3823;53.586;10.040;2022-09-09T13:42:33;19.00;70.80
7564;DHT22;3823;53.586;10.040;2022-09-09T13:45:03;19.00;98.70
7564;DHT22;3823;53.586;10.040;2022-09-09T13:47:35;18.90;99.90
7564;DHT22;3823;53.586;10.040;2022-09-09T13:50:19;18.80;99.90
7564;DHT22;3823;53.586;10.040;2022-09-09T13:52:46;18.70;99.90
7564;DHT22;3823;53.586;10.040;2022-09-09T13:55:12;18.60;99.90
7564;DHT22;3823;53.586;10.040;2022-09-09T13:57:38;18.60;99.90
7564;DHT22;3823;53.586;10.040;2022-09-09T14:00:05;18.40;99.90
7564;DHT22;3823;53.586;10.040;2022-09-09T14:02:32;18.30;99.90
7564;DHT22;3823;53.586;10.040;2022-09-09T14:04:58;18.20;99.90
7564;DHT22;3823;53.586;10.040;2022-09-09T14:07:24;18.10;99.90
7564;DHT22;3823;53.586;10.040;2022-09-09T14:09:50;18.20;99.90
7564;DHT22;3823;53.586;10.040;2022-09-09T14:12:17;18.20;99.90
7564;DHT22;3823;53.586;10.040;2022-09-09T14:14:43;18.10;99.90
7564;DHT22;3823;53.586;10.040;2022-09-09T14:17:09;18.20;99.90
7564;DHT22;3823;53.586;10.040;2022-09-09T14:19:35;18.20;99.90
7564;DHT22;3823;53.586;10.040;2022-09-09T14:22:02;18.10;99.90
7564;DHT22;3823;53.586;10.040;2022-09-09T14:24:28;18.10;99.90
7564;DHT22;3823;53.586;10.040;2022-09-09T14:26:54;18.10;99.90
7564;DHT22;3823;53.586;10.040;2022-09-09T14:29:19;18.00;99.90
7564;DHT22;3823;53.586;10.040;2022-09-09T14:31:45;18.00;99.90
7564;DHT22;3823;53.586;10.040;2022-09-09T14:34:11;18.10;99.90
7564;DHT22;3823;53.586;10.040;2022-09-09T14:36:37;18.20;99.90
7564;DHT22;3823;53.586;10.040;2022-09-09T14:39:03;18.10;99.90
7564;DHT22;3823;53.586;10.040;2022-09-09T14:41:29;18.10;99.90
7564;DHT22;3823;53.586;10.040;2022-09-09T14:43:55;18.00;99.90
7564;DHT22;3823;53.586;10.040;2022-09-09T14:46:21;18.00;99.90
7564;DHT22;3823;53.586;10.040;2022-09-09T14:48:47;17.90;99.90
7564;DHT22;3823;53.586;10.040;2022-09-09T14:51:23;17.90;99.90
7564;DHT22;3823;53.586;10.040;2022-09-09T14:53:53;17.70;99.90
7564;DHT22;3823;53.586;10.040;2022-09-09T14:56:21;17.60;99.90
7564;DHT22;3823;53.586;10.040;2022-09-09T14:58:48;17.40;99.90
7564;DHT22;3823;53.586;10.040;2022-09-09T15:01:16;17.30;99.90
7564;DHT22;3823;53.586;10.040;2022-09-09T15:03:51;17.30;99.90
7564;DHT22;3823;53.586;10.040;2022-09-09T15:06:18;17.20;99.90
7564;DHT22;3823;53.586;10.040;2022-09-09T15:08:44;17.10;99.90
7564;DHT22;3823;53.586;10.040;2022-09-09T15:11:12;17.10;99.90
7564;DHT22;3823;53.586;10.040;2022-09-09T15:13:39;17.10;99.90
7564;DHT22;3823;53.586;10.040;2022-09-09T15:16:12;17.20;99.90
7564;DHT22;3823;53.586;10.040;2022-09-09T15:18:38;17.20;99.90
7564;DHT22;3823;53.586;10.040;2022-09-09T15:21:08;17.20;99.90
7564;DHT22;3823;53.586;10.040;2022-09-09T15:23:35;17.30;99.90
7564;DHT22;3823;53.586;10.040;2022-09-09T15:26:01;17.30;99.90
7564;DHT22;3823;53.586;10.040;2022-09-09T15:28:27;17.30;99.90
7564;DHT22;3823;53.586;10.040;2022-09-09T15:30:53;17.30;99.90
7564;DHT22;3823;53.586;10.040;2022-09-09T15:33:20;17.30;99.90
7564;DHT22;3823;53.586;10.040;2022-09-09T15:35:46;17.20;99.90
7564;DHT22;3823;53.586;10.040;2022-09-09T15:38:12;17.30;99.90
7564;DHT22;3823;53.586;10.040;2022-09-09T15:40:39;17.40;99.90
7564;DHT22;3823;53.586;10.040;2022-09-09T15:43:06;17.60;99.90
7564;DHT22;3823;53.586;10.040;2022-09-09T15:45:32;17.70;99.90
7564;DHT22;3823;53.586;10.040;2022-09-09T15:48:02;17.70;99.90
7564;DHT22;3823;53.586;10.040;2022-09-09T15:50:28;17.60;99.90
7564;DHT22;3823;53.586;10.040;2022-09-09T15:52:55;17.50;99.90
7564;DHT22;3823;53.586;10.040;2022-09-09T15:55:21;17.60;99.90
7564;DHT22;3823;53.586;10.040;2022-09-09T15:57:46;17.60;99.90
7564;DHT22;3823;53.586;10.040;2022-09-09T16:00:12;17.70;99.90
7564;DHT22;3823;53.586;10.040;2022-09-09T16:02:39;17.60;99.90
7564;DHT22;3823;53.586;10.040;2022-09-09T16:05:05;17.60;99.90
7564;DHT22;3823;53.586;10.040;2022-09-09T16:07:31;17.60;99.90
7564;DHT22;3823;53.586;10.040;2022-09-09T16:09:56;17.70;99.90
7564;DHT22;3823;53.586;10.040;2022-09-09T16:12:22;17.70;99.90
7564;DHT22;3823;53.586;10.040;2022-09-09T16:14:48;17.60;99.90
7564;DHT22;3823;53.586;10.040;2022-09-09T16:17:13;17.60;99.90
7564;DHT22;3823;53.586;10.040;2022-09-09T16:19:40;17.60;99.90
7564;DHT22;3823;53.586;10.040;2022-09-09T16:22:06;17.60;99.90
7564;DHT22;3823;53.586;10.040;2022-09-09T16:24:32;17.50;99.90
7564;DHT22;3823;53.586;10.040;2022-09-09T16:26:58;17.50;99.90
7564;DHT22;3823;53.586;10.040;2022-09-09T16:29:24;17.60;99.90
7564;DHT22;3823;53.586;10.040;2022-09-09T16:31:53;17.60;99.90
7564;DHT22;3823;53.586;10.040;2022-09-09T16:34:19;17.70;99.90
7564;DHT22;3823;53.586;10.040;2022-09-09T16:36:46;17.90;99.90
7564;DHT22;3823;53.586;10.040;2022-09-09T16:39:15;18.00;99.90
7564;DHT22;3823;53.586;10.040;2022-09-09T16:41:42;18.00;99.90
7564;DHT22;3823;53.586;10.040;2022-09-09T16:44:10;18.00;99.90
7564;DHT22;3823;53.586;10.040;2022-09-09T16:46:39;17.90;99.90
7564;DHT22;3823;53.586;10.040;2022-09-09T16:49:07;17.90;99.90
7564;DHT22;3823;53.586;10.040;2022-09-09T16:51:47;17.90;99.90
7564;DHT22;3823;53.586;10.040;2022-09-09T16:54:14;17.90;99.90
7564;DHT22;3823;53.586;10.040;2022-09-09T16:56:43;17.90;99.90
7564;DHT22;3823;53.586;10.040;2022-09-09T16:59:12;18.00;99.90
7564;DHT22;3823;53.586;10.040;2022-09-09T17:01:39;18.00;99.90
7564;DHT22;3823;53.586;10.040;2022-09-09T17:04:08;18.00;99.90
7564;DHT22;3823;53.586;10.040;2022-09-09T17:06:35;18.00;99.90
7564;DHT22;3823;53.586;10.040;2022-09-09T17:09:06;17.90;99.90
7564;DHT22;3823;53.586;10.040;2022-09-09T17:11:33;17.90;99.90
7564;DHT22;3823;53.586;10.040;2022-09-09T17:13:59;17.80;99.90
7564;DHT22;3823;53.586;10.040;2022-09-09T17:16:27;17.70;99.90
7564;DHT22;3823;53.586;10.040;2022-09-09T17:18:54;17.70;99.90
7564;DHT22;3823;53.586;10.040;2022-09-09T17:21:22;17.60;99.90
7564;DHT22;3823;53.586;10.040;2022-09-09T17:23:49;17.70;99.90
7564;DHT22;3823;53.586;10.040;2022-09-09T17:26:18;17.70;99.90
7564;DHT22;3823;53.586;10.040;2022-09-09T17:28:44;17.70;99.90
7564;DHT22;3823;53.586;10.040;2022-09-09T17:31:12;17.70;99.90
7564;DHT22;3823;53.586;10.040;2022-09-09T17:33:40;17.60;99.90
7564;DHT22;3823;53.586;10.040;2022-09-09T17:38:34;17.60;99.90
7564;DHT22;3823;53.586;10.040;2022-09-09T17:41:11;17.60;99.90
7564;DHT22;3823;53.586;10.040;2022-09-09T17:43:37;17.70;99.90
7564;DHT22;3823;53.586;10.040;2022-09-09T17:46:14;17.70;99.90
7564;DHT22;3823;53.586;10.040;2022-09-09T17:48:41;17.70;99.90
7564;DHT22;3823;53.586;10.040;2022-09-09T17:51:13;17.70;99.90
7564;DHT22;3823;53.586;10.040;2022-09-09T17:53:40;17.80;99.90
7564;DHT22;3823;53.586;10.040;2022-09-09T17:56:09;17.70;99.90
7564;DHT22;3823;53.586;10.040;2022-09-09T17:58:36;17.80;99.90
7564;DHT22;3823;53.586;10.040;2022-09-09T18:01:09;17.60;99.90
7564;DHT22;3823;53.586;10.040;2022-09-09T18:03:42;17.60;99.90
7564;DHT22;3823;53.586;10.040;2022-09-09T18:06:12;17.50;99.90